International Virtual Aviation Organisation

Russian Federation and Kazakhstan MCD

 

Карточка аэропорта UAUU

Внимание!
Информация на этой странице в стадии наполнения.
Если вы не увидели какой-то информации, или заметили неточность - пожалуйста сообщите нам!
Спасибо!
Команда RU-STAFF
Название аэропортаКостанай
Название аэропорта (англ.)Kostanay
Превышение600 ft. (182.9 m.)
Координаты53°12.414', 63°33.018'
Высота перехода10000
Эшелон переходаby ATC
Коды ответчика0660-0667, 7230-7237
Зона ОрВДНур-Султан РПИ (UACN)
Данные METARUAUU 300100Z 32001MPS 0300 R33/0750 FZFG OVC002 M18/M20 Q1050 R33/850051 NOSIG RMK QBB070 QFE771/1028
Проноз погоды (TAF)NODATA
NOTAMshow/hide NOTAM
AWOS   TABLE

Информация о ВПП

ВПП Длина ВПП (м.) Покрытие Курс ВПП Частота ILS
152514Асфальтобетон145111.7
332514Асфальтобетон325110.7

Диспетчерские позиции




Спутниковое изображение